sensor_id;sensor_type;location;lat;lon;timestamp;P1;durP1;ratioP1;P2;durP2;ratioP2
22388;SDS011;11362;48.102;11.620;2022-07-01T00:02:10;1.20;;;1.10;;
22388;SDS011;11362;48.102;11.620;2022-07-01T00:04:35;2.30;;;1.50;;
22388;SDS011;11362;48.102;11.620;2022-07-01T00:07:00;1.60;;;1.47;;
22388;SDS011;11362;48.102;11.620;2022-07-01T00:09:26;2.40;;;1.50;;
22388;SDS011;11362;48.102;11.620;2022-07-01T00:11:51;1.47;;;1.20;;
22388;SDS011;11362;48.102;11.620;2022-07-01T00:14:16;2.30;;;1.30;;
22388;SDS011;11362;48.102;11.620;2022-07-01T00:16:42;1.77;;;1.50;;
22388;SDS011;11362;48.102;11.620;2022-07-01T00:19:07;1.20;;;1.20;;
22388;SDS011;11362;48.102;11.620;2022-07-01T00:21:33;1.37;;;1.27;;
22388;SDS011;11362;48.102;11.620;2022-07-01T00:23:58;2.63;;;1.50;;
22388;SDS011;11362;48.102;11.620;2022-07-01T00:26:23;1.60;;;1.50;;
22388;SDS011;11362;48.102;11.620;2022-07-01T00:28:49;1.40;;;1.33;;
22388;SDS011;11362;48.102;11.620;2022-07-01T00:31:14;1.67;;;1.57;;
22388;SDS011;11362;48.102;11.620;2022-07-01T00:33:40;1.43;;;1.33;;
22388;SDS011;11362;48.102;11.620;2022-07-01T00:36:05;1.50;;;1.03;;
22388;SDS011;11362;48.102;11.620;2022-07-01T00:38:30;1.67;;;1.47;;
22388;SDS011;11362;48.102;11.620;2022-07-01T00:40:56;1.90;;;1.80;;
22388;SDS011;11362;48.102;11.620;2022-07-01T00:43:21;1.50;;;1.40;;
22388;SDS011;11362;48.102;11.620;2022-07-01T00:45:48;1.50;;;1.40;;
22388;SDS011;11362;48.102;11.620;2022-07-01T00:48:14;4.23;;;1.60;;
22388;SDS011;11362;48.102;11.620;2022-07-01T00:50:40;3.33;;;1.60;;
22388;SDS011;11362;48.102;11.620;2022-07-01T00:53:05;1.40;;;1.30;;
22388;SDS011;11362;48.102;11.620;2022-07-01T00:55:31;1.10;;;1.10;;
22388;SDS011;11362;48.102;11.620;2022-07-01T00:57:56;1.73;;;1.27;;
22388;SDS011;11362;48.102;11.620;2022-07-01T01:00:22;2.00;;;1.17;;
22388;SDS011;11362;48.102;11.620;2022-07-01T01:02:47;1.67;;;1.40;;
22388;SDS011;11362;48.102;11.620;2022-07-01T01:05:13;2.67;;;1.47;;
22388;SDS011;11362;48.102;11.620;2022-07-01T01:07:38;1.43;;;1.33;;
22388;SDS011;11362;48.102;11.620;2022-07-01T01:10:04;1.80;;;1.30;;
22388;SDS011;11362;48.102;11.620;2022-07-01T01:12:30;1.23;;;1.13;;
22388;SDS011;11362;48.102;11.620;2022-07-01T01:14:55;2.13;;;1.30;;
22388;SDS011;11362;48.102;11.620;2022-07-01T01:17:21;1.20;;;1.20;;
22388;SDS011;11362;48.102;11.620;2022-07-01T01:19:47;1.20;;;1.10;;
22388;SDS011;11362;48.102;11.620;2022-07-01T01:22:13;3.60;;;1.90;;
22388;SDS011;11362;48.102;11.620;2022-07-01T01:24:40;1.30;;;1.20;;
22388;SDS011;11362;48.102;11.620;2022-07-01T01:27:07;1.37;;;1.37;;
22388;SDS011;11362;48.102;11.620;2022-07-01T01:29:33;2.33;;;1.40;;
22388;SDS011;11362;48.102;11.620;2022-07-01T01:32:00;1.47;;;1.47;;
22388;SDS011;11362;48.102;11.620;2022-07-01T01:34:26;1.50;;;1.40;;
22388;SDS011;11362;48.102;11.620;2022-07-01T01:36:51;1.40;;;1.40;;
22388;SDS011;11362;48.102;11.620;2022-07-01T01:39:17;1.53;;;1.43;;
22388;SDS011;11362;48.102;11.620;2022-07-01T01:41:43;2.47;;;1.30;;
22388;SDS011;11362;48.102;11.620;2022-07-01T01:44:09;1.80;;;1.33;;
22388;SDS011;11362;48.102;11.620;2022-07-01T01:46:35;2.43;;;1.20;;
22388;SDS011;11362;48.102;11.620;2022-07-01T01:49:00;1.23;;;1.13;;
22388;SDS011;11362;48.102;11.620;2022-07-01T01:51:26;1.53;;;1.43;;
22388;SDS011;11362;48.102;11.620;2022-07-01T01:53:52;1.27;;;1.17;;
22388;SDS011;11362;48.102;11.620;2022-07-01T01:56:18;1.50;;;1.47;;
22388;SDS011;11362;48.102;11.620;2022-07-01T01:58:43;1.13;;;0.93;;
22388;SDS011;11362;48.102;11.620;2022-07-01T02:01:09;1.50;;;1.30;;
22388;SDS011;11362;48.102;11.620;2022-07-01T02:03:38;1.13;;;1.13;;
22388;SDS011;11362;48.102;11.620;2022-07-01T02:06:05;1.30;;;1.20;;
22388;SDS011;11362;48.102;11.620;2022-07-01T02:08:31;1.37;;;1.30;;
22388;SDS011;11362;48.102;11.620;2022-07-01T02:10:57;1.47;;;1.37;;
22388;SDS011;11362;48.102;11.620;2022-07-01T02:13:23;1.00;;;1.00;;
22388;SDS011;11362;48.102;11.620;2022-07-01T02:15:48;1.20;;;1.20;;
22388;SDS011;11362;48.102;11.620;2022-07-01T02:18:14;1.17;;;1.17;;
22388;SDS011;11362;48.102;11.620;2022-07-01T02:20:39;1.13;;;1.13;;
22388;SDS011;11362;48.102;11.620;2022-07-01T02:23:04;1.00;;;0.90;;
22388;SDS011;11362;48.102;11.620;2022-07-01T02:25:30;1.00;;;1.00;;
22388;SDS011;11362;48.102;11.620;2022-07-01T02:27:55;2.57;;;1.27;;
22388;SDS011;11362;48.102;11.620;2022-07-01T02:30:20;1.17;;;1.17;;
22388;SDS011;11362;48.102;11.620;2022-07-01T02:32:45;0.90;;;0.90;;
22388;SDS011;11362;48.102;11.620;2022-07-01T02:35:11;1.30;;;1.20;;
22388;SDS011;11362;48.102;11.620;2022-07-01T02:37:36;1.17;;;1.00;;
22388;SDS011;11362;48.102;11.620;2022-07-01T02:40:02;1.10;;;1.10;;
22388;SDS011;11362;48.102;11.620;2022-07-01T02:42:28;0.90;;;0.90;;
22388;SDS011;11362;48.102;11.620;2022-07-01T02:44:56;1.57;;;1.30;;
22388;SDS011;11362;48.102;11.620;2022-07-01T02:47:22;1.37;;;1.00;;
22388;SDS011;11362;48.102;11.620;2022-07-01T02:49:48;1.17;;;1.00;;
22388;SDS011;11362;48.102;11.620;2022-07-01T02:52:13;1.07;;;1.00;;
22388;SDS011;11362;48.102;11.620;2022-07-01T02:54:38;0.87;;;0.87;;
22388;SDS011;11362;48.102;11.620;2022-07-01T02:57:04;1.10;;;1.10;;
22388;SDS011;11362;48.102;11.620;2022-07-01T02:59:29;0.90;;;0.90;;
22388;SDS011;11362;48.102;11.620;2022-07-01T03:01:55;1.47;;;0.80;;
22388;SDS011;11362;48.102;11.620;2022-07-01T03:04:20;1.33;;;0.80;;
22388;SDS011;11362;48.102;11.620;2022-07-01T03:06:45;1.13;;;1.00;;
22388;SDS011;11362;48.102;11.620;2022-07-01T03:09:11;0.77;;;0.60;;
22388;SDS011;11362;48.102;11.620;2022-07-01T03:11:36;1.27;;;0.87;;
22388;SDS011;11362;48.102;11.620;2022-07-01T03:14:01;0.87;;;0.87;;
22388;SDS011;11362;48.102;11.620;2022-07-01T03:16:27;0.90;;;0.90;;
22388;SDS011;11362;48.102;11.620;2022-07-01T03:18:52;1.27;;;0.70;;
22388;SDS011;11362;48.102;11.620;2022-07-01T03:21:18;0.93;;;0.83;;
22388;SDS011;11362;48.102;11.620;2022-07-01T03:23:43;1.50;;;0.90;;
22388;SDS011;11362;48.102;11.620;2022-07-01T03:26:08;0.80;;;0.80;;
22388;SDS011;11362;48.102;11.620;2022-07-01T03:28:33;0.70;;;0.70;;
22388;SDS011;11362;48.102;11.620;2022-07-01T03:30:59;0.97;;;0.90;;
22388;SDS011;11362;48.102;11.620;2022-07-01T03:33:24;1.20;;;1.10;;
22388;SDS011;11362;48.102;11.620;2022-07-01T03:35:50;0.80;;;0.80;;
22388;SDS011;11362;48.102;11.620;2022-07-01T03:38:15;1.27;;;1.00;;
22388;SDS011;11362;48.102;11.620;2022-07-01T03:40:40;0.80;;;0.80;;
22388;SDS011;11362;48.102;11.620;2022-07-01T03:43:05;0.90;;;0.90;;
22388;SDS011;11362;48.102;11.620;2022-07-01T03:45:31;0.80;;;0.80;;
22388;SDS011;11362;48.102;11.620;2022-07-01T03:47:57;1.23;;;0.80;;
22388;SDS011;11362;48.102;11.620;2022-07-01T03:50:23;0.77;;;0.77;;
22388;SDS011;11362;48.102;11.620;2022-07-01T03:52:49;0.90;;;0.90;;
22388;SDS011;11362;48.102;11.620;2022-07-01T03:55:14;0.70;;;0.70;;
22388;SDS011;11362;48.102;11.620;2022-07-01T03:57:40;0.73;;;0.73;;
22388;SDS011;11362;48.102;11.620;2022-07-01T04:00:06;0.90;;;0.90;;
22388;SDS011;11362;48.102;11.620;2022-07-01T04:02:32;1.17;;;0.73;;
22388;SDS011;11362;48.102;11.620;2022-07-01T04:04:57;0.70;;;0.70;;
22388;SDS011;11362;48.102;11.620;2022-07-01T04:07:23;0.80;;;0.73;;
22388;SDS011;11362;48.102;11.620;2022-07-01T04:09:49;0.70;;;0.70;;
22388;SDS011;11362;48.102;11.620;2022-07-01T04:12:16;0.80;;;0.80;;
22388;SDS011;11362;48.102;11.620;2022-07-01T04:14:41;1.00;;;1.00;;
22388;SDS011;11362;48.102;11.620;2022-07-01T04:17:07;0.67;;;0.67;;
22388;SDS011;11362;48.102;11.620;2022-07-01T04:19:32;0.80;;;0.80;;
22388;SDS011;11362;48.102;11.620;2022-07-01T04:21:57;0.70;;;0.70;;
22388;SDS011;11362;48.102;11.620;2022-07-01T04:24:23;0.70;;;0.70;;
22388;SDS011;11362;48.102;11.620;2022-07-01T04:26:48;0.63;;;0.63;;
22388;SDS011;11362;48.102;11.620;2022-07-01T04:29:14;0.63;;;0.63;;
22388;SDS011;11362;48.102;11.620;2022-07-01T04:31:40;1.87;;;1.00;;
22388;SDS011;11362;48.102;11.620;2022-07-01T04:34:06;0.57;;;0.57;;
22388;SDS011;11362;48.102;11.620;2022-07-01T04:36:32;0.70;;;0.70;;
22388;SDS011;11362;48.102;11.620;2022-07-01T04:38:57;0.60;;;0.60;;
22388;SDS011;11362;48.102;11.620;2022-07-01T04:41:23;0.53;;;0.53;;
22388;SDS011;11362;48.102;11.620;2022-07-01T04:43:48;1.60;;;0.90;;
22388;SDS011;11362;48.102;11.620;2022-07-01T04:46:14;0.77;;;0.77;;
22388;SDS011;11362;48.102;11.620;2022-07-01T04:48:39;0.90;;;0.90;;
22388;SDS011;11362;48.102;11.620;2022-07-01T04:51:04;0.50;;;0.50;;
22388;SDS011;11362;48.102;11.620;2022-07-01T04:53:30;0.60;;;0.60;;
22388;SDS011;11362;48.102;11.620;2022-07-01T04:55:55;0.80;;;0.70;;
22388;SDS011;11362;48.102;11.620;2022-07-01T04:58:20;0.50;;;0.50;;
22388;SDS011;11362;48.102;11.620;2022-07-01T05:00:46;1.13;;;0.80;;
22388;SDS011;11362;48.102;11.620;2022-07-01T05:03:11;0.70;;;0.70;;
22388;SDS011;11362;48.102;11.620;2022-07-01T05:05:36;0.80;;;0.80;;
22388;SDS011;11362;48.102;11.620;2022-07-01T05:08:01;0.60;;;0.60;;
22388;SDS011;11362;48.102;11.620;2022-07-01T05:10:27;1.00;;;0.90;;
22388;SDS011;11362;48.102;11.620;2022-07-01T05:12:52;0.60;;;0.60;;
22388;SDS011;11362;48.102;11.620;2022-07-01T05:15:18;0.70;;;0.70;;
22388;SDS011;11362;48.102;11.620;2022-07-01T05:17:43;0.70;;;0.70;;
22388;SDS011;11362;48.102;11.620;2022-07-01T05:20:08;0.63;;;0.50;;
22388;SDS011;11362;48.102;11.620;2022-07-01T05:22:34;0.67;;;0.67;;
22388;SDS011;11362;48.102;11.620;2022-07-01T05:24:59;1.33;;;0.73;;
22388;SDS011;11362;48.102;11.620;2022-07-01T05:27:25;0.80;;;0.80;;
22388;SDS011;11362;48.102;11.620;2022-07-01T05:29:50;1.80;;;1.10;;
22388;SDS011;11362;48.102;11.620;2022-07-01T05:32:15;2.17;;;0.73;;
22388;SDS011;11362;48.102;11.620;2022-07-01T05:34:41;0.97;;;0.80;;
22388;SDS011;11362;48.102;11.620;2022-07-01T05:37:06;3.20;;;0.87;;
22388;SDS011;11362;48.102;11.620;2022-07-01T05:39:31;3.50;;;1.10;;
22388;SDS011;11362;48.102;11.620;2022-07-01T05:41:56;5.77;;;1.20;;
22388;SDS011;11362;48.102;11.620;2022-07-01T05:44:22;3.37;;;0.90;;
22388;SDS011;11362;48.102;11.620;2022-07-01T05:46:47;1.97;;;0.80;;
22388;SDS011;11362;48.102;11.620;2022-07-01T05:49:12;4.27;;;1.13;;
22388;SDS011;11362;48.102;11.620;2022-07-01T05:51:38;5.63;;;0.97;;
22388;SDS011;11362;48.102;11.620;2022-07-01T05:54:03;7.27;;;1.30;;
22388;SDS011;11362;48.102;11.620;2022-07-01T05:56:28;5.37;;;1.00;;
22388;SDS011;11362;48.102;11.620;2022-07-01T05:58:54;11.53;;;2.00;;
22388;SDS011;11362;48.102;11.620;2022-07-01T06:01:19;4.03;;;1.30;;
22388;SDS011;11362;48.102;11.620;2022-07-01T06:03:45;6.73;;;1.80;;
22388;SDS011;11362;48.102;11.620;2022-07-01T06:06:10;10.03;;;1.83;;
22388;SDS011;11362;48.102;11.620;2022-07-01T06:08:35;3.27;;;0.93;;
22388;SDS011;11362;48.102;11.620;2022-07-01T06:11:00;7.70;;;1.40;;
22388;SDS011;11362;48.102;11.620;2022-07-01T06:13:26;9.13;;;1.53;;
22388;SDS011;11362;48.102;11.620;2022-07-01T06:15:51;2.83;;;0.90;;
22388;SDS011;11362;48.102;11.620;2022-07-01T06:18:17;5.77;;;1.10;;
22388;SDS011;11362;48.102;11.620;2022-07-01T06:20:42;5.73;;;1.27;;
22388;SDS011;11362;48.102;11.620;2022-07-01T06:23:08;6.23;;;1.60;;
22388;SDS011;11362;48.102;11.620;2022-07-01T06:25:33;15.03;;;1.87;;
22388;SDS011;11362;48.102;11.620;2022-07-01T06:27:58;6.73;;;1.30;;
22388;SDS011;11362;48.102;11.620;2022-07-01T06:30:23;2.63;;;1.10;;
22388;SDS011;11362;48.102;11.620;2022-07-01T06:32:49;4.07;;;1.13;;
22388;SDS011;11362;48.102;11.620;2022-07-01T06:35:14;3.30;;;0.80;;
22388;SDS011;11362;48.102;11.620;2022-07-01T06:37:39;4.10;;;1.37;;
22388;SDS011;11362;48.102;11.620;2022-07-01T06:40:05;2.13;;;0.97;;
22388;SDS011;11362;48.102;11.620;2022-07-01T06:42:32;4.53;;;1.00;;
22388;SDS011;11362;48.102;11.620;2022-07-01T06:44:58;3.53;;;0.70;;
22388;SDS011;11362;48.102;11.620;2022-07-01T06:47:24;1.97;;;0.87;;
22388;SDS011;11362;48.102;11.620;2022-07-01T06:49:49;0.73;;;0.73;;
22388;SDS011;11362;48.102;11.620;2022-07-01T06:52:15;1.00;;;0.70;;
22388;SDS011;11362;48.102;11.620;2022-07-01T06:54:40;3.33;;;0.80;;
22388;SDS011;11362;48.102;11.620;2022-07-01T06:57:06;1.77;;;0.93;;
22388;SDS011;11362;48.102;11.620;2022-07-01T06:59:32;0.63;;;0.63;;
22388;SDS011;11362;48.102;11.620;2022-07-01T07:01:58;2.00;;;0.70;;
22388;SDS011;11362;48.102;11.620;2022-07-01T07:04:23;3.43;;;0.93;;
22388;SDS011;11362;48.102;11.620;2022-07-01T07:06:49;0.77;;;0.70;;
22388;SDS011;11362;48.102;11.620;2022-07-01T07:09:14;2.77;;;0.93;;
22388;SDS011;11362;48.102;11.620;2022-07-01T07:11:39;4.00;;;0.83;;
22388;SDS011;11362;48.102;11.620;2022-07-01T07:14:05;0.80;;;0.80;;
22388;SDS011;11362;48.102;11.620;2022-07-01T07:16:30;3.10;;;0.70;;
22388;SDS011;11362;48.102;11.620;2022-07-01T07:18:55;0.67;;;0.67;;
22388;SDS011;11362;48.102;11.620;2022-07-01T07:21:21;1.23;;;0.60;;
22388;SDS011;11362;48.102;11.620;2022-07-01T07:23:46;0.60;;;0.60;;
22388;SDS011;11362;48.102;11.620;2022-07-01T07:26:11;2.07;;;0.90;;
22388;SDS011;11362;48.102;11.620;2022-07-01T07:28:37;1.23;;;0.70;;
22388;SDS011;11362;48.102;11.620;2022-07-01T07:31:02;0.87;;;0.87;;
22388;SDS011;11362;48.102;11.620;2022-07-01T07:33:28;1.00;;;0.90;;
22388;SDS011;11362;48.102;11.620;2022-07-01T07:35:53;3.67;;;0.90;;
22388;SDS011;11362;48.102;11.620;2022-07-01T07:38:19;2.03;;;0.80;;
22388;SDS011;11362;48.102;11.620;2022-07-01T07:40:44;4.30;;;1.03;;
22388;SDS011;11362;48.102;11.620;2022-07-01T07:43:10;7.17;;;1.20;;
22388;SDS011;11362;48.102;11.620;2022-07-01T07:45:35;2.53;;;1.00;;
22388;SDS011;11362;48.102;11.620;2022-07-01T07:48:00;3.20;;;0.87;;
22388;SDS011;11362;48.102;11.620;2022-07-01T07:50:26;3.60;;;1.00;;
22388;SDS011;11362;48.102;11.620;2022-07-01T07:52:51;3.47;;;1.07;;
22388;SDS011;11362;48.102;11.620;2022-07-01T07:55:17;2.60;;;1.00;;
22388;SDS011;11362;48.102;11.620;2022-07-01T07:57:43;5.23;;;1.17;;
22388;SDS011;11362;48.102;11.620;2022-07-01T08:00:09;4.80;;;1.20;;
22388;SDS011;11362;48.102;11.620;2022-07-01T08:02:36;3.30;;;1.27;;
22388;SDS011;11362;48.102;11.620;2022-07-01T08:05:02;3.40;;;0.90;;
22388;SDS011;11362;48.102;11.620;2022-07-01T08:07:28;2.50;;;1.03;;
22388;SDS011;11362;48.102;11.620;2022-07-01T08:09:53;8.63;;;1.20;;
22388;SDS011;11362;48.102;11.620;2022-07-01T08:12:19;3.00;;;1.17;;
22388;SDS011;11362;48.102;11.620;2022-07-01T08:14:44;3.40;;;1.07;;
22388;SDS011;11362;48.102;11.620;2022-07-01T08:17:09;4.23;;;1.17;;
22388;SDS011;11362;48.102;11.620;2022-07-01T08:19:35;1.80;;;1.10;;
22388;SDS011;11362;48.102;11.620;2022-07-01T08:22:00;2.73;;;1.07;;
22388;SDS011;11362;48.102;11.620;2022-07-01T08:24:26;8.23;;;1.27;;
22388;SDS011;11362;48.102;11.620;2022-07-01T08:26:51;7.20;;;1.47;;
22388;SDS011;11362;48.102;11.620;2022-07-01T08:29:16;4.63;;;1.00;;
22388;SDS011;11362;48.102;11.620;2022-07-01T08:31:41;7.13;;;1.30;;
22388;SDS011;11362;48.102;11.620;2022-07-01T08:34:07;5.70;;;1.27;;
22388;SDS011;11362;48.102;11.620;2022-07-01T08:36:32;2.60;;;0.90;;
22388;SDS011;11362;48.102;11.620;2022-07-01T08:38:58;3.50;;;1.37;;
22388;SDS011;11362;48.102;11.620;2022-07-01T08:41:24;3.80;;;1.37;;
22388;SDS011;11362;48.102;11.620;2022-07-01T08:43:49;4.70;;;1.10;;
22388;SDS011;11362;48.102;11.620;2022-07-01T08:46:14;3.60;;;1.07;;
22388;SDS011;11362;48.102;11.620;2022-07-01T08:48:43;2.83;;;1.17;;
22388;SDS011;11362;48.102;11.620;2022-07-01T08:51:10;12.23;;;1.47;;
22388;SDS011;11362;48.102;11.620;2022-07-01T08:53:35;8.43;;;1.83;;
22388;SDS011;11362;48.102;11.620;2022-07-01T08:56:01;3.13;;;1.00;;
22388;SDS011;11362;48.102;11.620;2022-07-01T08:58:27;2.47;;;1.03;;
22388;SDS011;11362;48.102;11.620;2022-07-01T09:00:53;3.17;;;1.07;;
22388;SDS011;11362;48.102;11.620;2022-07-01T09:03:36;5.93;;;1.17;;
22388;SDS011;11362;48.102;11.620;2022-07-01T09:06:01;3.50;;;1.30;;
22388;SDS011;11362;48.102;11.620;2022-07-01T09:08:26;4.80;;;1.00;;
22388;SDS011;11362;48.102;11.620;2022-07-01T09:10:52;2.77;;;1.30;;
22388;SDS011;11362;48.102;11.620;2022-07-01T09:13:17;4.70;;;1.47;;
22388;SDS011;11362;48.102;11.620;2022-07-01T09:15:42;8.70;;;1.70;;
22388;SDS011;11362;48.102;11.620;2022-07-01T09:18:15;6.10;;;1.80;;
22388;SDS011;11362;48.102;11.620;2022-07-01T09:20:45;4.57;;;1.60;;
22388;SDS011;11362;48.102;11.620;2022-07-01T09:23:12;3.93;;;1.40;;
22388;SDS011;11362;48.102;11.620;2022-07-01T09:25:50;5.30;;;1.30;;
22388;SDS011;11362;48.102;11.620;2022-07-01T09:28:18;4.03;;;1.37;;
22388;SDS011;11362;48.102;11.620;2022-07-01T09:30:46;6.03;;;1.70;;
22388;SDS011;11362;48.102;11.620;2022-07-01T09:33:17;7.77;;;1.87;;
22388;SDS011;11362;48.102;11.620;2022-07-01T09:35:44;6.77;;;2.00;;
22388;SDS011;11362;48.102;11.620;2022-07-01T09:38:12;7.17;;;1.80;;
22388;SDS011;11362;48.102;11.620;2022-07-01T09:43:27;2.77;;;1.53;;
22388;SDS011;11362;48.102;11.620;2022-07-01T09:46:06;8.27;;;1.93;;
22388;SDS011;11362;48.102;11.620;2022-07-01T09:50:59;5.37;;;1.90;;
22388;SDS011;11362;48.102;11.620;2022-07-01T09:53:25;8.80;;;1.67;;
22388;SDS011;11362;48.102;11.620;2022-07-01T09:55:50;3.77;;;1.40;;
22388;SDS011;11362;48.102;11.620;2022-07-01T09:58:17;4.73;;;1.60;;
22388;SDS011;11362;48.102;11.620;2022-07-01T10:00:43;4.40;;;1.77;;
22388;SDS011;11362;48.102;11.620;2022-07-01T10:03:09;8.83;;;1.37;;
22388;SDS011;11362;48.102;11.620;2022-07-01T10:05:57;10.13;;;2.10;;
22388;SDS011;11362;48.102;11.620;2022-07-01T10:14:28;3.30;;;1.30;;
22388;SDS011;11362;48.102;11.620;2022-07-01T10:16:55;5.33;;;1.70;;
22388;SDS011;11362;48.102;11.620;2022-07-01T10:21:46;3.50;;;1.10;;
22388;SDS011;11362;48.102;11.620;2022-07-01T10:24:15;4.67;;;1.07;;
22388;SDS011;11362;48.102;11.620;2022-07-01T10:26:42;2.57;;;1.00;;
22388;SDS011;11362;48.102;11.620;2022-07-01T10:29:30;2.60;;;1.37;;
22388;SDS011;11362;48.102;11.620;2022-07-01T10:31:59;4.13;;;1.10;;
22388;SDS011;11362;48.102;11.620;2022-07-01T10:34:33;4.27;;;1.30;;
22388;SDS011;11362;48.102;11.620;2022-07-01T10:37:09;2.57;;;1.20;;
22388;SDS011;11362;48.102;11.620;2022-07-01T10:42:31;2.10;;;1.30;;
22388;SDS011;11362;48.102;11.620;2022-07-01T10:45:19;3.27;;;1.57;;
22388;SDS011;11362;48.102;11.620;2022-07-01T10:47:45;3.67;;;1.00;;
22388;SDS011;11362;48.102;11.620;2022-07-01T10:50:11;4.30;;;0.90;;
22388;SDS011;11362;48.102;11.620;2022-07-01T10:52:38;3.43;;;0.83;;
22388;SDS011;11362;48.102;11.620;2022-07-01T10:55:04;1.37;;;0.70;;
22388;SDS011;11362;48.102;11.620;2022-07-01T10:57:36;3.70;;;0.87;;
22388;SDS011;11362;48.102;11.620;2022-07-01T11:05:02;2.37;;;0.70;;
22388;SDS011;11362;48.102;11.620;2022-07-01T11:07:29;3.43;;;1.03;;
22388;SDS011;11362;48.102;11.620;2022-07-01T11:09:57;2.17;;;0.80;;
22388;SDS011;11362;48.102;11.620;2022-07-01T11:12:23;3.17;;;0.90;;
22388;SDS011;11362;48.102;11.620;2022-07-01T11:14:49;1.23;;;0.93;;
22388;SDS011;11362;48.102;11.620;2022-07-01T11:17:15;1.87;;;1.13;;
22388;SDS011;11362;48.102;11.620;2022-07-01T11:19:42;4.53;;;1.07;;
22388;SDS011;11362;48.102;11.620;2022-07-01T11:22:17;2.57;;;0.63;;
22388;SDS011;11362;48.102;11.620;2022-07-01T11:24:43;1.00;;;0.70;;
22388;SDS011;11362;48.102;11.620;2022-07-01T11:27:08;1.30;;;0.73;;
22388;SDS011;11362;48.102;11.620;2022-07-01T11:29:33;2.30;;;0.87;;
22388;SDS011;11362;48.102;11.620;2022-07-01T11:31:59;1.63;;;1.00;;
22388;SDS011;11362;48.102;11.620;2022-07-01T11:34:26;2.40;;;0.87;;
22388;SDS011;11362;48.102;11.620;2022-07-01T11:36:53;0.77;;;0.70;;
22388;SDS011;11362;48.102;11.620;2022-07-01T11:39:19;0.83;;;0.70;;
22388;SDS011;11362;48.102;11.620;2022-07-01T11:41:45;2.53;;;0.80;;
22388;SDS011;11362;48.102;11.620;2022-07-01T11:44:10;0.97;;;0.80;;
22388;SDS011;11362;48.102;11.620;2022-07-01T11:46:35;0.73;;;0.70;;
22388;SDS011;11362;48.102;11.620;2022-07-01T11:49:01;7.13;;;1.30;;
22388;SDS011;11362;48.102;11.620;2022-07-01T11:51:36;3.60;;;1.30;;
22388;SDS011;11362;48.102;11.620;2022-07-01T11:54:02;9.07;;;1.33;;
22388;SDS011;11362;48.102;11.620;2022-07-01T11:56:36;10.47;;;1.70;;
22388;SDS011;11362;48.102;11.620;2022-07-01T11:59:02;7.83;;;1.83;;
22388;SDS011;11362;48.102;11.620;2022-07-01T12:01:32;11.83;;;1.20;;
22388;SDS011;11362;48.102;11.620;2022-07-01T12:04:00;2.87;;;0.97;;
22388;SDS011;11362;48.102;11.620;2022-07-01T12:06:26;4.17;;;1.43;;
22388;SDS011;11362;48.102;11.620;2022-07-01T12:08:52;3.20;;;1.03;;
22388;SDS011;11362;48.102;11.620;2022-07-01T12:11:19;3.10;;;1.07;;
22388;SDS011;11362;48.102;11.620;2022-07-01T12:13:46;7.63;;;1.43;;
22388;SDS011;11362;48.102;11.620;2022-07-01T12:16:12;6.97;;;1.10;;
22388;SDS011;11362;48.102;11.620;2022-07-01T12:18:38;5.80;;;1.50;;
22388;SDS011;11362;48.102;11.620;2022-07-01T12:21:04;2.07;;;0.67;;
22388;SDS011;11362;48.102;11.620;2022-07-01T12:23:30;7.00;;;1.37;;
22388;SDS011;11362;48.102;11.620;2022-07-01T12:25:56;3.97;;;1.23;;
22388;SDS011;11362;48.102;11.620;2022-07-01T12:28:28;3.87;;;1.33;;
22388;SDS011;11362;48.102;11.620;2022-07-01T12:31:05;4.23;;;1.30;;
22388;SDS011;11362;48.102;11.620;2022-07-01T12:33:33;2.93;;;0.80;;
22388;SDS011;11362;48.102;11.620;2022-07-01T12:36:01;3.07;;;0.97;;
22388;SDS011;11362;48.102;11.620;2022-07-01T12:38:27;3.80;;;1.40;;
22388;SDS011;11362;48.102;11.620;2022-07-01T12:40:52;5.07;;;0.87;;
22388;SDS011;11362;48.102;11.620;2022-07-01T12:45:57;3.13;;;0.80;;
22388;SDS011;11362;48.102;11.620;2022-07-01T12:48:26;2.23;;;0.63;;
22388;SDS011;11362;48.102;11.620;2022-07-01T12:50:52;0.57;;;0.50;;
22388;SDS011;11362;48.102;11.620;2022-07-01T12:53:20;2.17;;;0.87;;
22388;SDS011;11362;48.102;11.620;2022-07-01T12:55:47;1.87;;;0.60;;
22388;SDS011;11362;48.102;11.620;2022-07-01T12:58:15;3.33;;;0.73;;
22388;SDS011;11362;48.102;11.620;2022-07-01T13:00:43;2.47;;;0.80;;
22388;SDS011;11362;48.102;11.620;2022-07-01T13:03:10;2.00;;;0.80;;
22388;SDS011;11362;48.102;11.620;2022-07-01T13:05:36;0.70;;;0.60;;
22388;SDS011;11362;48.102;11.620;2022-07-01T13:08:02;1.63;;;0.53;;
22388;SDS011;11362;48.102;11.620;2022-07-01T13:10:28;0.80;;;0.60;;
22388;SDS011;11362;48.102;11.620;2022-07-01T13:12:54;4.10;;;0.90;;
22388;SDS011;11362;48.102;11.620;2022-07-01T13:15:20;3.47;;;0.80;;
22388;SDS011;11362;48.102;11.620;2022-07-01T13:17:46;2.80;;;0.60;;
22388;SDS011;11362;48.102;11.620;2022-07-01T13:20:12;1.80;;;0.67;;
22388;SDS011;11362;48.102;11.620;2022-07-01T13:22:38;4.17;;;1.23;;
22388;SDS011;11362;48.102;11.620;2022-07-01T13:25:04;4.80;;;1.23;;
22388;SDS011;11362;48.102;11.620;2022-07-01T13:27:31;1.77;;;0.90;;
22388;SDS011;11362;48.102;11.620;2022-07-01T13:29:56;3.37;;;0.70;;
22388;SDS011;11362;48.102;11.620;2022-07-01T13:32:22;4.00;;;1.07;;
22388;SDS011;11362;48.102;11.620;2022-07-01T13:34:47;1.23;;;0.90;;
22388;SDS011;11362;48.102;11.620;2022-07-01T13:37:13;1.23;;;1.13;;
22388;SDS011;11362;48.102;11.620;2022-07-01T13:39:38;1.50;;;0.83;;
22388;SDS011;11362;48.102;11.620;2022-07-01T13:42:04;4.23;;;1.00;;
22388;SDS011;11362;48.102;11.620;2022-07-01T13:44:30;1.50;;;1.20;;
22388;SDS011;11362;48.102;11.620;2022-07-01T13:46:55;1.50;;;0.67;;
22388;SDS011;11362;48.102;11.620;2022-07-01T13:49:21;0.90;;;0.90;;
22388;SDS011;11362;48.102;11.620;2022-07-01T13:51:46;0.70;;;0.60;;
22388;SDS011;11362;48.102;11.620;2022-07-01T13:54:12;3.13;;;0.93;;
22388;SDS011;11362;48.102;11.620;2022-07-01T13:56:37;2.27;;;0.90;;
22388;SDS011;11362;48.102;11.620;2022-07-01T13:59:02;11.93;;;2.23;;
22388;SDS011;11362;48.102;11.620;2022-07-01T14:01:28;10.83;;;2.00;;
22388;SDS011;11362;48.102;11.620;2022-07-01T14:03:54;13.23;;;1.47;;
22388;SDS011;11362;48.102;11.620;2022-07-01T14:06:19;9.87;;;1.60;;
22388;SDS011;11362;48.102;11.620;2022-07-01T14:08:45;11.60;;;1.80;;
22388;SDS011;11362;48.102;11.620;2022-07-01T14:11:11;13.30;;;1.97;;
22388;SDS011;11362;48.102;11.620;2022-07-01T14:13:37;15.30;;;2.03;;
22388;SDS011;11362;48.102;11.620;2022-07-01T14:16:03;12.10;;;1.73;;
22388;SDS011;11362;48.102;11.620;2022-07-01T14:18:28;9.53;;;1.67;;
22388;SDS011;11362;48.102;11.620;2022-07-01T14:20:53;9.67;;;2.07;;
22388;SDS011;11362;48.102;11.620;2022-07-01T14:23:19;16.60;;;1.77;;
22388;SDS011;11362;48.102;11.620;2022-07-01T14:25:44;10.30;;;1.90;;
22388;SDS011;11362;48.102;11.620;2022-07-01T14:28:10;15.57;;;2.10;;
22388;SDS011;11362;48.102;11.620;2022-07-01T14:30:35;7.30;;;1.70;;
22388;SDS011;11362;48.102;11.620;2022-07-01T14:33:00;6.47;;;1.63;;
22388;SDS011;11362;48.102;11.620;2022-07-01T14:35:26;11.93;;;1.70;;
22388;SDS011;11362;48.102;11.620;2022-07-01T14:37:51;8.10;;;1.57;;
22388;SDS011;11362;48.102;11.620;2022-07-01T14:40:16;6.27;;;1.70;;
22388;SDS011;11362;48.102;11.620;2022-07-01T14:42:42;13.20;;;1.97;;
22388;SDS011;11362;48.102;11.620;2022-07-01T14:45:07;4.73;;;1.60;;
22388;SDS011;11362;48.102;11.620;2022-07-01T14:47:33;10.10;;;1.40;;
22388;SDS011;11362;48.102;11.620;2022-07-01T14:49:58;7.83;;;1.30;;
22388;SDS011;11362;48.102;11.620;2022-07-01T14:52:24;5.87;;;1.30;;